Time;durP1;ratioP1;P1;durP2;ratioP2;P2;SDS_P1;SDS_P2;PMS_P1;PMS_P2;Temp;Humidity;BMP_temperature;BMP_pressure;BME280_temperature;BME280_humidity;BME280_pressure;Samples;Min_cycle;Max_cycle;Signal;HPM_P1;HPM_P2
2022/03/02 00:00:27;;;;;;;21.50;17.07;;;-1.20;99.90;;;;;;5023963;28;20993;-76
2022/03/02 00:02:54;;;;;;;22.80;17.27;;;-1.20;99.90;;;;;;5024292;28;20442;-76
2022/03/02 00:05:21;;;;;;;23.30;17.40;;;-1.30;99.90;;;;;;5004112;28;20442;-77
2022/03/02 00:07:48;;;;;;;22.70;16.90;;;-1.30;99.90;;;;;;5020683;28;20436;-76
2022/03/02 00:10:15;;;;;;;21.60;16.87;;;-1.30;99.90;;;;;;5021450;28;20469;-76
2022/03/02 00:12:43;;;;;;;24.20;18.30;;;-1.30;99.90;;;;;;5020505;28;20936;-76
2022/03/02 00:15:10;;;;;;;21.10;16.77;;;-1.30;99.90;;;;;;5022326;28;20442;-76
2022/03/02 00:17:37;;;;;;;21.53;17.00;;;-1.30;99.90;;;;;;5022875;28;20451;-77
2022/03/02 00:20:05;;;;;;;21.90;17.00;;;-1.30;99.90;;;;;;5021550;28;20464;-75
2022/03/02 00:22:33;;;;;;;28.10;17.80;;;-1.30;99.90;;;;;;5003511;28;20539;-77
2022/03/02 00:24:59;;;;;;;22.30;17.00;;;-1.30;99.90;;;;;;5020897;28;20447;-77
2022/03/02 00:27:26;;;;;;;19.60;16.00;;;-1.30;99.90;;;;;;5022471;28;20506;-77
2022/03/02 00:29:54;;;;;;;18.37;15.83;;;-1.30;99.90;;;;;;4998503;28;20922;-77
2022/03/02 00:32:21;;;;;;;22.30;16.83;;;-1.40;99.90;;;;;;5021860;28;20431;-77
2022/03/02 00:34:48;;;;;;;23.70;16.30;;;-1.40;99.90;;;;;;5003251;28;20897;-77
2022/03/02 00:37:15;;;;;;;22.13;16.97;;;-1.40;99.90;;;;;;5021068;28;20541;-77
2022/03/02 00:39:43;;;;;;;22.07;17.60;;;-1.40;99.90;;;;;;5021064;28;20483;-77
2022/03/02 00:42:10;;;;;;;21.40;16.87;;;-1.40;99.90;;;;;;5021174;28;20439;-76
2022/03/02 00:44:37;;;;;;;21.33;17.10;;;-1.40;99.90;;;;;;5022298;28;20530;-76
2022/03/02 00:47:07;;;;;;;21.87;17.33;;;-1.40;99.90;;;;;;5021083;28;20439;-77
2022/03/02 00:49:35;;;;;;;24.13;17.90;;;-1.30;99.90;;;;;;5015139;28;20477;-76
2022/03/02 00:52:02;;;;;;;20.83;17.57;;;-1.30;99.90;;;;;;5002427;28;20886;-78
2022/03/02 00:54:29;;;;;;;22.17;17.80;;;-1.20;99.90;;;;;;5024918;28;20917;-76
2022/03/02 00:56:56;;;;;;;18.73;16.33;;;-1.20;99.90;;;;;;5006420;28;20450;-76
2022/03/02 00:59:23;;;;;;;24.47;17.07;;;-1.20;99.90;;;;;;5017796;28;20849;-77
2022/03/02 01:01:50;;;;;;;22.50;16.30;;;-1.10;99.90;;;;;;5025224;28;20514;-76
2022/03/02 01:04:19;;;;;;;23.10;17.60;;;-1.10;99.90;;;;;;5017034;28;20826;-77
2022/03/02 01:06:46;;;;;;;19.47;15.87;;;-1.10;99.90;;;;;;5023538;28;20752;-76
2022/03/02 01:09:13;;;;;;;18.20;15.10;;;-1.00;99.90;;;;;;5022705;28;20471;-76
2022/03/02 01:11:40;;;;;;;25.30;17.60;;;-1.10;99.90;;;;;;5019771;28;20442;-76
2022/03/02 01:14:07;;;;;;;23.37;17.00;;;-1.10;99.90;;;;;;5022953;28;20705;-77
2022/03/02 01:16:34;;;;;;;20.80;16.67;;;-1.10;99.90;;;;;;5000038;28;20493;-75
2022/03/02 01:19:01;;;;;;;19.33;16.53;;;-1.10;99.90;;;;;;5006328;28;21023;-76
2022/03/02 01:21:29;;;;;;;22.97;15.53;;;-1.20;99.90;;;;;;5028112;28;20486;-78
2022/03/02 01:23:58;;;;;;;19.47;16.20;;;-1.10;99.90;;;;;;5005454;28;20450;-77
2022/03/02 01:26:25;;;;;;;21.73;16.50;;;-1.20;99.90;;;;;;5002545;28;20455;-76
2022/03/02 01:28:53;;;;;;;20.47;16.70;;;-1.20;99.90;;;;;;5023141;28;20469;-76
2022/03/02 01:31:22;;;;;;;23.43;17.13;;;-1.20;99.90;;;;;;5021705;28;20438;-77
2022/03/02 01:33:49;;;;;;;18.53;15.80;;;-1.20;99.90;;;;;;5001901;28;20815;-77
2022/03/02 01:36:16;;;;;;;20.77;16.70;;;-1.30;99.90;;;;;;5022240;28;20481;-76
2022/03/02 01:38:44;;;;;;;20.20;15.80;;;-1.30;99.90;;;;;;5017219;28;20446;-77
2022/03/02 01:41:15;;;;;;;19.03;16.17;;;-1.30;99.90;;;;;;5022619;28;20434;-76
2022/03/02 01:43:42;;;;;;;18.57;15.27;;;-1.40;99.90;;;;;;5020530;28;20470;-77
2022/03/02 01:46:08;;;;;;;21.37;16.77;;;-1.40;99.90;;;;;;5018496;28;20454;-77
2022/03/02 01:48:36;;;;;;;22.70;16.97;;;-1.40;99.90;;;;;;5024988;28;20438;-76
2022/03/02 01:51:02;;;;;;;22.93;17.37;;;-1.40;99.90;;;;;;5020478;28;20431;-75
2022/03/02 01:53:29;;;;;;;22.60;17.70;;;-1.40;99.90;;;;;;5020997;28;20976;-75
2022/03/02 01:55:58;;;;;;;22.17;16.53;;;-1.40;99.90;;;;;;5020384;28;20497;-76
2022/03/02 01:58:27;;;;;;;19.93;17.67;;;-1.50;99.90;;;;;;5002276;28;20459;-75
2022/03/02 02:00:54;;;;;;;20.67;16.47;;;-1.50;99.90;;;;;;5019470;28;20998;-76
2022/03/02 02:03:21;;;;;;;21.37;17.17;;;-1.60;99.90;;;;;;5024392;28;20500;-75
2022/03/02 02:05:49;;;;;;;24.33;16.87;;;-1.60;99.90;;;;;;5022213;28;20443;-76
2022/03/02 02:08:16;;;;;;;23.10;16.97;;;-1.70;99.90;;;;;;5002755;28;20451;-75
2022/03/02 02:10:43;;;;;;;22.27;16.73;;;-1.70;99.90;;;;;;5022673;28;20518;-75
2022/03/02 02:13:12;;;;;;;24.77;17.73;;;-1.70;99.90;;;;;;5021451;28;20856;-75
2022/03/02 02:15:39;;;;;;;25.13;18.13;;;-1.80;99.90;;;;;;5019467;28;20482;-75
2022/03/02 02:18:06;;;;;;;20.77;16.50;;;-1.80;99.90;;;;;;5020054;28;20439;-75
2022/03/02 02:20:38;;;;;;;21.43;17.07;;;-1.70;99.90;;;;;;4995863;28;20914;-75
2022/03/02 02:23:06;;;;;;;24.53;17.60;;;-1.80;99.90;;;;;;5023659;28;20497;-76
2022/03/02 02:25:33;;;;;;;20.93;17.83;;;-1.70;99.90;;;;;;5023451;28;20447;-76
2022/03/02 02:28:01;;;;;;;20.93;17.53;;;-1.70;99.90;;;;;;5025689;28;20847;-75
2022/03/02 02:30:30;;;;;;;24.80;17.63;;;-1.80;99.90;;;;;;5023864;28;20454;-75
2022/03/02 02:32:57;;;;;;;23.13;18.33;;;-1.80;99.90;;;;;;5025608;28;20436;-76
2022/03/02 02:35:25;;;;;;;26.87;18.63;;;-1.80;99.90;;;;;;5029668;28;20483;-75
2022/03/02 02:37:54;;;;;;;23.70;17.90;;;-1.80;99.90;;;;;;5010433;28;20493;-77
2022/03/02 02:40:22;;;;;;;24.53;18.23;;;-1.80;99.90;;;;;;5005823;28;20471;-75
2022/03/02 02:42:49;;;;;;;25.63;17.47;;;-1.80;99.90;;;;;;5007437;28;20435;-76
2022/03/02 02:45:20;;;;;;;28.37;18.90;;;-1.80;99.90;;;;;;5024224;28;20435;-76
2022/03/02 02:47:47;;;;;;;25.20;18.70;;;-1.80;99.90;;;;;;5025243;28;20430;-76
2022/03/02 02:50:19;;;;;;;27.57;19.40;;;-1.80;99.90;;;;;;5023442;28;21002;-75
2022/03/02 02:52:46;;;;;;;25.93;18.53;;;-1.70;99.90;;;;;;5026582;28;20466;-77
2022/03/02 02:55:16;;;;;;;25.33;17.67;;;-1.70;99.90;;;;;;5029719;28;20560;-76
2022/03/02 02:57:43;;;;;;;24.83;17.87;;;-1.80;99.90;;;;;;5004937;28;20457;-77
2022/03/02 03:00:12;;;;;;;21.50;16.37;;;-1.80;99.90;;;;;;5023326;28;20466;-77
2022/03/02 03:02:39;;;;;;;23.53;17.20;;;-1.80;99.90;;;;;;5021681;28;20430;-77
2022/03/02 03:05:10;;;;;;;23.53;16.53;;;-1.90;99.90;;;;;;5004484;28;20449;-76
2022/03/02 03:07:37;;;;;;;22.40;17.33;;;-1.90;99.90;;;;;;5024849;28;20447;-77
2022/03/02 03:10:04;;;;;;;23.50;17.90;;;-1.90;99.90;;;;;;5009711;28;20474;-76
2022/03/02 03:12:32;;;;;;;24.60;16.90;;;-1.90;99.90;;;;;;5023043;28;20436;-77
2022/03/02 03:14:59;;;;;;;22.47;17.40;;;-2.00;99.90;;;;;;5022403;28;20471;-77
2022/03/02 03:17:26;;;;;;;25.17;18.20;;;-2.00;99.90;;;;;;5007433;28;20457;-76
2022/03/02 03:19:53;;;;;;;22.77;17.33;;;-2.00;99.90;;;;;;5008012;28;20485;-77
2022/03/02 03:22:20;;;;;;;21.80;17.00;;;-2.10;99.90;;;;;;5005137;28;20879;-78
2022/03/02 03:24:47;;;;;;;22.93;17.33;;;-2.20;99.90;;;;;;5004594;28;20543;-79
2022/03/02 03:27:13;;;;;;;20.93;16.33;;;-2.30;99.90;;;;;;5004075;28;20447;-78
2022/03/02 03:29:42;;;;;;;24.87;18.37;;;-2.30;99.90;;;;;;5006837;28;20471;-77
2022/03/02 03:32:08;;;;;;;23.53;18.43;;;-2.40;99.90;;;;;;5025202;28;20469;-77
2022/03/02 03:34:35;;;;;;;22.03;17.70;;;-2.30;99.90;;;;;;5006590;28;20477;-76
2022/03/02 03:37:02;;;;;;;23.77;17.70;;;-2.30;99.90;;;;;;5026352;28;20436;-75
2022/03/02 03:39:29;;;;;;;28.43;18.73;;;-2.40;99.90;;;;;;5024763;28;20547;-77
2022/03/02 03:41:56;;;;;;;28.17;18.70;;;-2.40;99.90;;;;;;5020480;28;20459;-79
2022/03/02 03:44:23;;;;;;;20.83;16.93;;;-2.40;99.90;;;;;;5028696;28;20450;-78
2022/03/02 03:46:52;;;;;;;27.60;18.87;;;-2.50;99.90;;;;;;5026241;28;20454;-76
2022/03/02 03:49:19;;;;;;;26.40;18.57;;;-2.50;99.90;;;;;;5026543;28;20473;-78
2022/03/02 03:51:46;;;;;;;21.93;17.83;;;-2.50;99.90;;;;;;5035609;28;20435;-78
2022/03/02 03:54:12;;;;;;;31.07;18.87;;;-2.50;99.90;;;;;;5004994;28;20468;-78
2022/03/02 03:56:40;;;;;;;24.47;17.37;;;-2.50;99.90;;;;;;5036217;28;20614;-79
2022/03/02 03:59:07;;;;;;;25.43;19.60;;;-2.50;99.90;;;;;;5008720;28;20525;-78
2022/03/02 04:01:35;;;;;;;26.60;18.70;;;-2.40;99.90;;;;;;5004327;28;20829;-77
2022/03/02 04:04:03;;;;;;;29.63;19.93;;;-2.40;99.90;;;;;;5021062;28;20464;-77
2022/03/02 04:06:30;;;;;;;26.27;20.30;;;-2.40;99.90;;;;;;5046630;28;20446;-78
2022/03/02 04:11:57;;;;;;;26.67;18.80;;;-2.40;99.90;;;;;;4953369;28;20454;-76
2022/03/02 04:14:24;;;;;;;25.60;18.87;;;-2.40;99.90;;;;;;4937345;29;20473;-77
2022/03/02 04:16:51;;;;;;;24.57;18.87;;;-2.40;99.90;;;;;;4934065;28;20447;-78
2022/03/02 04:19:19;;;;;;;26.60;18.63;;;-2.40;99.90;;;;;;4959800;28;20463;-75
2022/03/02 04:21:46;;;;;;;26.03;19.93;;;-2.40;99.90;;;;;;4956757;28;20874;-76
2022/03/02 04:24:13;;;;;;;24.30;19.37;;;-2.30;99.90;;;;;;4943417;29;21043;-78
2022/03/02 04:26:40;;;;;;;29.40;18.77;;;-2.30;99.90;;;;;;4951416;28;20474;-78
2022/03/02 04:29:07;;;;;;;30.40;19.60;;;-2.30;99.90;;;;;;4949675;28;20455;-79
2022/03/02 04:31:34;;;;;;;27.73;18.63;;;-2.30;99.90;;;;;;4959211;28;21050;-78
2022/03/02 04:34:01;;;;;;;29.20;20.33;;;-2.40;99.90;;;;;;4954900;28;20443;-78
2022/03/02 04:36:29;;;;;;;30.20;19.73;;;-2.30;99.90;;;;;;4950050;28;20449;-78
2022/03/02 04:38:57;;;;;;;31.83;21.33;;;-2.40;99.90;;;;;;4957180;28;20458;-78
2022/03/02 04:41:24;;;;;;;24.20;18.93;;;-2.30;99.90;;;;;;4962684;28;20514;-76
2022/03/02 04:43:51;;;;;;;29.63;20.60;;;-2.40;99.90;;;;;;4956569;28;20446;-77
2022/03/02 04:46:18;;;;;;;31.50;21.97;;;-2.40;99.90;;;;;;4967870;28;20813;-77
2022/03/02 04:48:45;;;;;;;31.60;21.23;;;-2.40;99.90;;;;;;4961331;28;20840;-77
2022/03/02 04:51:12;;;;;;;31.43;21.60;;;-2.40;99.90;;;;;;4960108;28;20471;-76
2022/03/02 04:53:40;;;;;;;26.57;20.30;;;-2.30;99.90;;;;;;4968173;28;20452;-77
2022/03/02 04:56:08;;;;;;;30.03;19.07;;;-2.30;99.90;;;;;;4956793;28;20478;-78
2022/03/02 04:58:35;;;;;;;28.07;19.57;;;-2.30;99.90;;;;;;4942090;28;20454;-76
2022/03/02 05:01:01;;;;;;;31.83;21.63;;;-2.30;99.90;;;;;;4960622;28;20782;-78
2022/03/02 05:03:28;;;;;;;29.70;20.60;;;-2.30;99.90;;;;;;4940013;28;20469;-78
2022/03/02 05:05:55;;;;;;;30.17;20.77;;;-2.40;99.90;;;;;;4956817;28;20502;-77
2022/03/02 05:08:22;;;;;;;27.30;19.67;;;-2.40;99.90;;;;;;4955583;28;20451;-77
2022/03/02 05:10:50;;;;;;;27.73;19.63;;;-2.50;99.90;;;;;;4953326;28;20482;-78
2022/03/02 05:13:17;;;;;;;27.10;20.77;;;-2.50;99.90;;;;;;4942613;29;20505;-78
2022/03/02 05:15:44;;;;;;;27.80;19.33;;;-2.50;99.90;;;;;;4936318;29;20498;-77
2022/03/02 05:18:11;;;;;;;28.53;20.97;;;-2.50;99.90;;;;;;4933994;29;20814;-77
2022/03/02 05:20:40;;;;;;;26.77;20.07;;;-2.50;99.90;;;;;;4934152;29;21038;-77
2022/03/02 05:23:07;;;;;;;32.07;21.13;;;-2.60;99.90;;;;;;4935846;29;20848;-78
2022/03/02 05:25:34;;;;;;;30.33;19.27;;;-2.60;99.90;;;;;;4959537;28;20451;-77
2022/03/02 05:28:02;;;;;;;25.73;18.90;;;-2.60;99.90;;;;;;4935187;29;20466;-77
2022/03/02 05:30:29;;;;;;;30.40;21.63;;;-2.60;99.90;;;;;;4935695;28;20477;-79
2022/03/02 05:32:56;;;;;;;29.40;20.73;;;-2.70;99.90;;;;;;4952955;28;20442;-77
2022/03/02 05:35:23;;;;;;;30.53;20.90;;;-2.70;99.90;;;;;;4935806;29;20500;-77
2022/03/02 05:37:50;;;;;;;28.83;20.97;;;-2.70;99.90;;;;;;4951351;28;20861;-77
2022/03/02 05:40:19;;;;;;;28.50;20.73;;;-2.70;99.90;;;;;;4953089;28;20458;-78
2022/03/02 05:42:46;;;;;;;26.67;20.37;;;-2.70;99.90;;;;;;4952769;28;20966;-77
2022/03/02 05:45:14;;;;;;;32.73;21.50;;;-2.70;99.90;;;;;;4951540;28;20450;-78
2022/03/02 05:47:41;;;;;;;29.20;20.73;;;-2.70;99.90;;;;;;4934988;28;20462;-77
2022/03/02 05:50:10;;;;;;;30.37;22.13;;;-2.80;99.90;;;;;;4952957;28;20462;-77
2022/03/02 05:52:37;;;;;;;44.00;23.50;;;-2.80;99.90;;;;;;4952677;28;20963;-79
2022/03/02 05:55:05;;;;;;;30.47;22.60;;;-2.80;99.90;;;;;;4953454;28;20818;-77
2022/03/02 05:57:32;;;;;;;29.10;21.30;;;-2.80;99.90;;;;;;4941000;29;20454;-78
2022/03/02 05:59:59;;;;;;;32.10;21.23;;;-2.80;99.90;;;;;;4938073;28;20481;-78
2022/03/02 06:02:27;;;;;;;28.63;21.30;;;-2.80;99.90;;;;;;4953546;28;20477;-78
2022/03/02 06:04:56;;;;;;;29.73;21.73;;;-2.70;99.90;;;;;;4940608;28;20509;-78
2022/03/02 06:07:23;;;;;;;29.33;21.50;;;-2.60;99.90;;;;;;4947376;29;20831;-77
2022/03/02 06:09:50;;;;;;;30.17;20.53;;;-2.50;99.90;;;;;;4956579;28;20469;-77
2022/03/02 06:12:18;;;;;;;29.70;21.33;;;-2.50;99.90;;;;;;4957140;28;20461;-77
2022/03/02 06:14:45;;;;;;;28.30;20.97;;;-2.50;99.90;;;;;;4952096;28;20469;-78
2022/03/02 06:17:13;;;;;;;32.37;21.10;;;-2.40;99.90;;;;;;4945790;29;20465;-77
2022/03/02 06:19:42;;;;;;;29.17;20.73;;;-2.30;99.90;;;;;;4956050;28;21050;-77
2022/03/02 06:22:11;;;;;;;25.73;20.40;;;-2.20;99.90;;;;;;4951968;28;20923;-77
2022/03/02 06:24:39;;;;;;;29.70;20.97;;;-2.20;99.90;;;;;;4959523;28;20469;-81
2022/03/02 06:27:06;;;;;;;24.67;19.40;;;-2.00;99.90;;;;;;4946026;28;20826;-78
2022/03/02 06:29:32;;;;;;;28.60;19.77;;;-1.90;99.90;;;;;;4966088;28;20454;-78
2022/03/02 06:32:00;;;;;;;25.13;18.67;;;-1.80;99.90;;;;;;4939322;29;20454;-78
2022/03/02 06:34:26;;;;;;;23.80;20.27;;;-1.60;99.90;;;;;;4939962;28;20465;-78
2022/03/02 06:36:55;;;;;;;29.30;19.50;;;-1.50;99.90;;;;;;4939152;29;20454;-78
2022/03/02 06:39:23;;;;;;;31.73;21.17;;;-1.40;99.90;;;;;;4955934;28;20447;-78
2022/03/02 06:42:05;;;;;;;24.33;19.33;;;-1.30;99.90;;;;;;4956672;28;20820;-79
2022/03/02 06:44:34;;;;;;;24.00;18.93;;;-1.20;99.90;;;;;;4947602;28;20552;-78
2022/03/02 06:47:04;;;;;;;24.93;18.90;;;-1.00;99.90;;;;;;4954679;28;20526;-78
2022/03/02 06:49:44;;;;;;;27.57;19.10;;;-0.80;99.90;;;;;;4953498;28;20839;-78
2022/03/02 06:52:17;;;;;;;22.53;18.63;;;-0.70;99.90;;;;;;4956455;28;20451;-78
2022/03/02 06:54:47;;;;;;;22.97;19.00;;;-0.70;99.90;;;;;;4937185;28;20446;-79
2022/03/02 06:57:17;;;;;;;23.40;18.60;;;-0.50;99.90;;;;;;4942516;28;20455;-79
2022/03/02 06:59:51;;;;;;;20.63;18.43;;;-0.40;99.90;;;;;;4945853;28;20526;-79
2022/03/02 07:02:27;;;;;;;22.00;17.57;;;-0.40;99.90;;;;;;4958322;28;20450;-78
2022/03/02 07:04:57;;;;;;;20.17;17.47;;;-0.30;99.90;;;;;;4946489;28;20453;-78
2022/03/02 07:07:25;;;;;;;20.30;18.10;;;-0.20;99.90;;;;;;4951162;28;20449;-78
2022/03/02 07:09:53;;;;;;;25.40;19.43;;;-0.20;99.90;;;;;;4968349;28;20501;-78
2022/03/02 07:12:21;;;;;;;23.13;18.57;;;-0.10;99.90;;;;;;4963251;28;20450;-78
2022/03/02 07:14:50;;;;;;;23.23;17.80;;;0.00;99.90;;;;;;4952245;28;20830;-78
2022/03/02 07:17:17;;;;;;;24.73;19.00;;;0.00;99.90;;;;;;4964408;28;20809;-78
2022/03/02 07:19:44;;;;;;;25.63;19.77;;;0.10;99.90;;;;;;4965603;28;20469;-78
2022/03/02 07:22:13;;;;;;;22.53;17.20;;;0.20;99.90;;;;;;4947366;28;20512;-78
2022/03/02 07:24:51;;;;;;;21.97;17.57;;;0.30;99.90;;;;;;4956341;28;20505;-77
2022/03/02 07:27:19;;;;;;;23.10;18.63;;;0.40;99.90;;;;;;4948212;28;20462;-79
2022/03/02 07:29:50;;;;;;;19.10;16.77;;;0.40;99.90;;;;;;4965286;28;20542;-78
2022/03/02 07:32:21;;;;;;;20.63;17.33;;;0.60;99.90;;;;;;4929768;28;20458;-79
2022/03/02 07:34:53;;;;;;;22.80;17.93;;;0.70;99.90;;;;;;4957132;28;20443;-78
2022/03/02 07:37:21;;;;;;;23.43;17.73;;;0.80;99.90;;;;;;4958492;28;20446;-79
2022/03/02 07:39:50;;;;;;;25.27;18.63;;;0.90;99.90;;;;;;4955147;28;20526;-79
2022/03/02 07:42:17;;;;;;;25.00;18.20;;;1.00;99.90;;;;;;4958380;28;21018;-79
2022/03/02 07:44:43;;;;;;;22.50;17.10;;;1.10;99.90;;;;;;4956384;28;20465;-77
2022/03/02 07:47:10;;;;;;;19.20;15.90;;;1.20;99.90;;;;;;4957668;28;20443;-79
2022/03/02 07:49:37;;;;;;;21.27;16.43;;;1.30;99.90;;;;;;4936498;29;20481;-79
2022/03/02 07:52:06;;;;;;;20.37;16.43;;;1.50;99.90;;;;;;4937492;29;20517;-78
2022/03/02 07:54:37;;;;;;;21.77;17.33;;;1.50;99.90;;;;;;4952892;28;20915;-78
2022/03/02 07:57:07;;;;;;;21.50;16.47;;;1.50;99.90;;;;;;4939275;28;20483;-79
2022/03/02 07:59:37;;;;;;;23.37;17.93;;;1.50;99.90;;;;;;4961881;28;20472;-80
2022/03/02 08:02:06;;;;;;;19.57;16.83;;;1.50;99.90;;;;;;4951658;28;20540;-78
2022/03/02 08:04:33;;;;;;;19.70;16.37;;;1.60;99.90;;;;;;4955034;28;20481;-78
2022/03/02 08:07:00;;;;;;;19.30;16.57;;;1.70;99.90;;;;;;4940666;29;20456;-79
2022/03/02 08:09:27;;;;;;;20.30;16.83;;;1.80;99.90;;;;;;4935449;29;20524;-78
2022/03/02 08:11:53;;;;;;;20.10;17.60;;;1.90;99.90;;;;;;4941332;28;20465;-76
2022/03/02 08:14:24;;;;;;;21.87;18.30;;;1.90;99.90;;;;;;4937323;29;20457;-80
2022/03/02 08:16:52;;;;;;;19.40;17.20;;;2.00;99.90;;;;;;4954110;28;20475;-79
2022/03/02 08:19:19;;;;;;;22.47;17.37;;;2.00;99.90;;;;;;4952786;28;20505;-78
2022/03/02 08:21:51;;;;;;;20.93;18.70;;;2.00;99.90;;;;;;4954068;28;20440;-79
2022/03/02 08:24:19;;;;;;;19.37;17.37;;;2.10;99.90;;;;;;4948802;28;20936;-78
2022/03/02 08:26:52;;;;;;;21.47;16.77;;;2.30;99.90;;;;;;4938091;29;21007;-78
2022/03/02 08:29:23;;;;;;;22.10;17.60;;;2.40;99.90;;;;;;4946067;28;20498;-78
2022/03/02 08:31:51;;;;;;;20.83;17.47;;;2.50;99.90;;;;;;4940499;29;20457;-78
2022/03/02 08:34:18;;;;;;;20.90;17.53;;;2.60;99.90;;;;;;4936641;29;20811;-78
2022/03/02 08:36:45;;;;;;;19.77;17.67;;;2.70;99.90;;;;;;4953898;28;20548;-78
2022/03/02 08:39:13;;;;;;;22.77;18.27;;;2.80;99.90;;;;;;4951424;28;20478;-78
2022/03/02 08:41:40;;;;;;;19.03;17.13;;;2.90;99.90;;;;;;4954017;28;20450;-78
2022/03/02 08:44:08;;;;;;;19.10;16.73;;;3.10;99.90;;;;;;4954440;28;20210;-79
2022/03/02 08:46:37;;;;;;;19.80;16.80;;;3.30;99.90;;;;;;4952891;28;20217;-78
2022/03/02 08:49:03;;;;;;;21.27;17.90;;;3.50;99.90;;;;;;4953734;28;20210;-79
2022/03/02 08:51:31;;;;;;;22.10;18.93;;;3.60;99.90;;;;;;4929161;29;20218;-78
2022/03/02 08:54:01;;;;;;;18.60;16.63;;;3.60;99.90;;;;;;4944003;28;20679;-78
2022/03/02 08:56:28;;;;;;;19.93;16.73;;;3.70;99.90;;;;;;4960803;28;20211;-78
2022/03/02 08:58:55;;;;;;;19.80;17.70;;;3.80;99.90;;;;;;4958073;28;20195;-79
2022/03/02 09:01:23;;;;;;;19.80;17.63;;;3.80;99.90;;;;;;4952719;28;20226;-79
2022/03/02 09:03:53;;;;;;;21.27;17.43;;;3.80;99.90;;;;;;4937719;29;20222;-78
2022/03/02 09:06:21;;;;;;;20.93;17.37;;;3.90;99.90;;;;;;4953473;28;20241;-76
2022/03/02 09:08:49;;;;;;;20.57;17.93;;;4.00;99.90;;;;;;4953288;28;20225;-78
2022/03/02 09:11:16;;;;;;;19.97;17.53;;;4.10;99.90;;;;;;4936162;29;20730;-78
2022/03/02 09:13:43;;;;;;;18.90;16.87;;;4.20;99.90;;;;;;4953655;28;20202;-77
2022/03/02 09:16:11;;;;;;;21.53;18.07;;;4.50;99.90;;;;;;4935890;29;20218;-79
2022/03/02 09:18:38;;;;;;;19.50;17.40;;;4.60;99.90;;;;;;4953534;28;20233;-79
2022/03/02 09:21:09;;;;;;;19.93;17.67;;;4.90;99.90;;;;;;4936390;29;20230;-78
2022/03/02 09:23:40;;;;;;;19.73;17.50;;;5.00;99.90;;;;;;4954400;28;20199;-80
2022/03/02 09:26:09;;;;;;;20.03;17.93;;;4.90;99.90;;;;;;4953073;28;20629;-79
2022/03/02 09:28:38;;;;;;;16.63;12.03;;;4.70;99.90;;;;;;4936852;29;20207;-79
2022/03/02 09:31:06;;;;;;;16.20;11.53;;;4.80;99.90;;;;;;4925347;29;20224;-79
2022/03/02 09:33:35;;;;;;;18.70;12.70;;;4.80;99.90;;;;;;4952097;28;20684;-78
2022/03/02 09:36:04;;;;;;;19.57;12.13;;;4.80;99.90;;;;;;4936192;29;20310;-79
2022/03/02 09:38:33;;;;;;;18.43;14.53;;;4.90;99.90;;;;;;4928592;29;20807;-78
2022/03/02 09:41:04;;;;;;;17.40;11.80;;;5.00;99.90;;;;;;4925115;29;20220;-78
2022/03/02 09:43:32;;;;;;;16.50;11.70;;;5.20;99.90;;;;;;4945761;28;20231;-79
2022/03/02 09:46:04;;;;;;;20.10;12.87;;;5.30;99.90;;;;;;4962479;28;20227;-79
2022/03/02 09:48:33;;;;;;;16.47;12.37;;;5.40;99.90;;;;;;4942259;28;20753;-79
2022/03/02 09:51:02;;;;;;;19.03;13.27;;;5.40;99.90;;;;;;4953644;28;20226;-79
2022/03/02 09:53:32;;;;;;;19.23;13.30;;;5.20;99.90;;;;;;4928506;29;20207;-79
2022/03/02 09:56:04;;;;;;;20.80;13.43;;;5.40;99.90;;;;;;4953328;28;20209;-77
2022/03/02 09:58:31;;;;;;;16.30;13.07;;;5.50;99.90;;;;;;4955665;28;20837;-78
2022/03/02 10:01:01;;;;;;;16.43;12.17;;;5.40;99.90;;;;;;4966018;28;20281;-78
2022/03/02 10:03:36;;;;;;;17.87;12.87;;;5.60;99.90;;;;;;4923967;28;20210;-79
2022/03/02 10:06:05;;;;;;;19.33;11.97;;;5.70;99.90;;;;;;4952592;28;20196;-79
2022/03/02 10:08:39;;;;;;;17.40;12.17;;;5.80;99.90;;;;;;4948079;28;20209;-78
2022/03/02 10:11:08;;;;;;;19.17;12.77;;;5.90;99.90;;;;;;5006425;23;20321;-78
2022/03/02 10:13:35;;;;;;;17.30;12.10;;;6.10;99.90;;;;;;5002344;28;20339;-76
2022/03/02 10:16:03;;;;;;;18.03;12.63;;;6.00;99.90;;;;;;4991750;28;20215;-76
2022/03/02 10:18:34;;;;;;;18.80;12.37;;;6.00;99.90;;;;;;4990788;28;20196;-76
2022/03/02 10:21:04;;;;;;;16.90;12.07;;;6.10;99.90;;;;;;5003328;28;20719;-77
2022/03/02 10:23:40;;;;;;;18.27;13.23;;;6.20;99.90;;;;;;5003833;28;20251;-77
2022/03/02 10:26:19;;;;;;;22.07;13.43;;;6.10;99.90;;;;;;4993792;28;20760;-77
2022/03/02 10:28:56;;;;;;;17.97;14.27;;;6.10;99.90;;;;;;4993538;28;20298;-77
2022/03/02 10:31:41;;;;;;;20.20;16.53;;;6.10;99.90;;;;;;4993529;28;20233;-76
2022/03/02 10:34:28;;;;;;;18.13;14.97;;;6.00;99.90;;;;;;4998832;28;20250;-77
2022/03/02 10:37:04;;;;;;;16.83;14.80;;;6.20;99.90;;;;;;5024212;28;20209;-78
2022/03/02 10:39:50;;;;;;;17.57;14.47;;;6.30;99.90;;;;;;5013979;28;20202;-77
2022/03/02 10:42:23;;;;;;;16.03;14.30;;;6.30;99.90;;;;;;5020682;28;20202;-79
2022/03/02 10:45:02;;;;;;;17.20;13.90;;;6.60;99.90;;;;;;5005568;28;20215;-78
2022/03/02 10:47:30;;;;;;;14.57;10.43;;;7.00;99.90;;;;;;5017267;28;20667;-77
2022/03/02 10:50:04;;;;;;;14.63;10.43;;;7.20;99.90;;;;;;5026427;28;20232;-79
2022/03/02 10:52:36;;;;;;;13.00;10.63;;;7.50;99.90;;;;;;5019304;28;20207;-79
2022/03/02 10:55:09;;;;;;;14.73;10.20;;;7.60;99.90;;;;;;5027978;28;20335;-78
2022/03/02 10:57:36;;;;;;;18.33;11.90;;;7.80;99.90;;;;;;5032719;28;20204;-79
2022/03/02 11:00:09;;;;;;;15.67;12.93;;;7.80;99.90;;;;;;5027317;28;20704;-79
2022/03/02 11:02:40;;;;;;;15.60;13.67;;;7.90;99.90;;;;;;5008683;28;20221;-80
2022/03/02 11:05:10;;;;;;;16.13;13.13;;;8.00;99.90;;;;;;5008670;28;20208;-79
2022/03/02 11:07:37;;;;;;;14.27;11.27;;;8.10;99.90;;;;;;5009795;28;20264;-78
2022/03/02 11:10:08;;;;;;;14.53;11.50;;;8.10;99.90;;;;;;5025966;28;20221;-79
2022/03/02 11:12:35;;;;;;;17.10;12.57;;;8.10;99.90;;;;;;5026820;28;20189;-79
2022/03/02 11:15:07;;;;;;;17.03;13.00;;;8.20;99.90;;;;;;5026170;28;20205;-78
2022/03/02 11:17:36;;;;;;;15.93;13.00;;;8.40;99.90;;;;;;5017240;28;20188;-78
2022/03/02 11:20:07;;;;;;;13.60;11.87;;;8.50;99.90;;;;;;5024502;28;20221;-77
2022/03/02 11:22:34;;;;;;;19.27;13.53;;;8.70;99.90;;;;;;5005483;28;20256;-77
2022/03/02 11:25:01;;;;;;;15.80;12.57;;;8.70;99.90;;;;;;5033011;28;20227;-77
2022/03/02 11:27:36;;;;;;;15.00;12.27;;;8.70;99.90;;;;;;5023597;28;20647;-78
2022/03/02 11:30:09;;;;;;;15.80;13.53;;;8.60;99.90;;;;;;5025341;28;20251;-78
2022/03/02 11:32:38;;;;;;;15.77;13.23;;;8.70;99.90;;;;;;5024406;28;20201;-77
2022/03/02 11:35:08;;;;;;;14.97;12.03;;;8.70;99.90;;;;;;5025142;28;20197;-77
2022/03/02 11:37:36;;;;;;;16.80;13.80;;;8.60;99.90;;;;;;4998400;28;20193;-78
2022/03/02 11:40:07;;;;;;;17.87;14.07;;;8.60;99.90;;;;;;5003876;28;20243;-78
2022/03/02 11:42:38;;;;;;;16.37;14.67;;;8.50;99.90;;;;;;5024406;28;20201;-77
2022/03/02 11:45:07;;;;;;;19.13;16.40;;;8.60;99.90;;;;;;5040944;28;20661;-78
2022/03/02 11:47:36;;;;;;;17.43;15.70;;;8.60;99.90;;;;;;5010052;28;20263;-77
2022/03/02 11:50:05;;;;;;;18.00;16.10;;;8.80;99.90;;;;;;5006527;28;20274;-78
2022/03/02 11:52:34;;;;;;;17.83;16.00;;;8.80;99.90;;;;;;5004684;28;20444;-78
2022/03/02 11:55:05;;;;;;;13.73;12.03;;;8.90;99.90;;;;;;5001607;28;20554;-79
2022/03/02 11:57:43;;;;;;;15.97;12.37;;;9.00;99.90;;;;;;5016977;28;20631;-77
2022/03/02 12:00:14;;;;;;;16.13;12.07;;;9.20;99.90;;;;;;5004736;28;20221;-77
2022/03/02 12:02:44;;;;;;;14.17;11.50;;;9.10;99.90;;;;;;5023860;28;20197;-77
2022/03/02 12:05:11;;;;;;;15.23;11.73;;;9.40;99.90;;;;;;5023169;28;20236;-77
2022/03/02 12:07:40;;;;;;;16.87;15.07;;;9.30;99.90;;;;;;5022217;28;20212;-78
2022/03/02 12:10:17;;;;;;;17.50;15.60;;;9.30;99.90;;;;;;5022555;28;20279;-78
2022/03/02 12:12:45;;;;;;;16.60;15.00;;;9.40;99.90;;;;;;5009770;28;20192;-77
2022/03/02 12:15:14;;;;;;;17.37;15.67;;;9.40;99.90;;;;;;5034108;28;20200;-78
2022/03/02 12:17:41;;;;;;;16.60;14.70;;;9.30;99.90;;;;;;5009796;28;20264;-77
2022/03/02 12:20:11;;;;;;;18.60;11.57;;;9.40;99.90;;;;;;5034283;28;20220;-78
2022/03/02 12:22:41;;;;;;;13.23;10.97;;;9.50;99.90;;;;;;5016931;28;20205;-79
2022/03/02 12:25:12;;;;;;;14.90;11.50;;;9.60;99.80;;;;;;5014179;28;20235;-79
2022/03/02 12:27:40;;;;;;;13.93;11.50;;;9.70;99.30;;;;;;5025821;28;20757;-77
2022/03/02 12:30:09;;;;;;;13.50;11.77;;;9.60;98.20;;;;;;5021835;28;20225;-79
2022/03/02 12:32:39;;;;;;;15.23;11.83;;;9.60;97.40;;;;;;5035449;28;20224;-78
2022/03/02 12:35:09;;;;;;;15.23;10.90;;;9.50;97.30;;;;;;5040975;28;20204;-79
2022/03/02 12:37:37;;;;;;;13.60;10.93;;;9.70;97.10;;;;;;5020442;28;20200;-78
2022/03/02 12:40:09;;;;;;;14.07;12.67;;;9.60;97.00;;;;;;5028106;28;20235;-77